Eione — WDJ5558 — position and weather

sailwx.info

Track history (hours):
 
Tides and Currents Weather Stations Pressure Air Temp Water Temp Dewpoint Dewpoint Depression Visibility Wind Speed Wind Dir Waves Ship Positions

Eione

Owner: Howell, Howard D, Maple Valley, WA. More information available from US FCC via Universal Licensing System and Coast Guard Vessel Documentation Center.

Last reported at 2017-Oct-27 11:56 UTC. Time now 2017-Nov-24 16:48 UTC.
Position N 32°46' W 117°39'.
Warning: this ship's position is 28 days out of date.

Length 12 m.

Type: Sailing vessel. MMSI: 367788850.

Date/timePositionNaut miles runAvg speedWind from/ knotsBaromVisibWave heightAir tempDewpointWater temp
2017-Oct-27 11:56N 32°46' W 117°39'81 5.0
2017-Oct-26 19:43N 33°52' W 118°37'3 7.1
2017-Oct-26 19:19N 33°52' W 118°40'13 6.5
2017-Oct-26 17:19N 33°53' W 118°56'2 6.2
2017-Oct-26 17:00N 33°54' W 118°58'3 6.1
2017-Oct-26 16:30N 33°54' W 119°02'3 6.0
2017-Oct-26 16:00N 33°54' W 119°05'1 2.1
2017-Oct-26 15:30N 33°54' W 119°07'1 2.4
2017-Oct-26 15:00N 33°54' W 119°08'2 3.9
2017-Oct-26 14:30N 33°55' W 119°10'2 4.4
2017-Oct-26 14:00N 33°57' W 119°12'3 4.6
2017-Oct-26 13:28N 33°58' W 119°14'3 5.0
2017-Oct-26 12:54N 33°60' W 119°17'2 4.8
2017-Oct-26 12:30N 34°01' W 119°19'2 4.6
2017-Oct-26 11:59N 34°02' W 119°21'3 4.6
2017-Oct-26 11:19N 34°03' W 119°25'2 4.6
2017-Oct-26 10:58N 34°04' W 119°27'2 4.6
2017-Oct-26 10:26N 34°04' W 119°30'2 4.1
2017-Oct-26 09:51N 34°05' W 119°32'2 4.4
2017-Oct-26 09:30N 34°06' W 119°34'2 4.4
2017-Oct-26 09:00N 34°06' W 119°37'6 5.9
2017-Oct-26 08:03N 34°08' W 119°43'1 6.3
2017-Oct-26 07:58N 34°08' W 119°44'3 6.4
2017-Oct-26 07:27N 34°09' W 119°47'3 6.1
2017-Oct-26 06:59N 34°10' W 119°50'4 5.6
2017-Oct-26 06:16N 34°14' W 119°53'2 6.0
2017-Oct-26 05:52N 34°15' W 119°56'2 5.9
2017-Oct-26 05:30N 34°16' W 119°58'3 6.0
2017-Oct-26 04:59N 34°17' W 120°02'3 6.0
2017-Oct-26 04:29N 34°18' W 120°05'3 5.5
2017-Oct-26 03:58N 34°19' W 120°08'3 5.6
2017-Oct-26 03:30N 34°20' W 120°11'3 5.6
2017-Oct-26 03:00N 34°21' W 120°14'3 5.4
2017-Oct-26 02:30N 34°22' W 120°17'3 5.4
2017-Oct-26 02:00N 34°23' W 120°20'3 5.3
2017-Oct-26 01:30N 34°24' W 120°23'3 6.2
2017-Oct-26 01:00N 34°25' W 120°27'3 6.5
2017-Oct-26 00:30N 34°26' W 120°31'6 6.3
2017-Oct-25 23:33N 34°30' W 120°36'0 7.3
2017-Oct-25 23:30N 34°30' W 120°36'15 5.4
2017-Oct-25 20:49N 34°40' W 120°49'6 6.2
2017-Oct-25 19:49N 34°45' W 120°54'2 4.9
2017-Oct-25 19:30N 34°46' W 120°56'3 6.3
2017-Oct-25 19:00N 34°48' W 120°58'5 5.9
2017-Oct-25 18:06N 34°52' W 121°02'1 6.5
2017-Oct-25 18:00N 34°53' W 121°03'3 5.8
2017-Oct-25 17:30N 34°55' W 121°05'109 4.7
2017-Oct-24 18:28N 36°37' W 121°54'77 4.5
2017-Oct-24 01:28N 37°47' W 122°32'4 9.0
2017-Oct-24 01:00N 37°50' W 122°28'1 1.4
2017-Oct-24 00:19N 37°51' W 122°28'0 0.0
2017-Oct-22 22:00N 37°51' W 122°29'2 4.8
2017-Oct-22 21:30N 37°49' W 122°29'3 5.8
2017-Oct-22 21:00N 37°49' W 122°25'2 3.8
2017-Oct-22 20:30N 37°48' W 122°23'3 6.7
2017-Oct-22 20:00N 37°50' W 122°26'  
2017-Oct-19 19:05N 37°52' W 122°29'0 1.8
2017-Oct-19 18:58N 37°52' W 122°29'1 2.5
2017-Oct-19 18:29N 37°51' W 122°28'15 6.7
2017-Oct-19 16:14N 37°37' W 122°34'2 7.1
2017-Oct-19 15:58N 37°35' W 122°34'3 6.9
2017-Oct-19 15:29N 37°31' W 122°34'3 6.1
2017-Oct-19 15:00N 37°29' W 122°32'2 4.5
2017-Oct-19 14:30N 37°30' W 122°29'0 0.0
2017-Oct-18 01:34N 37°30' W 122°29'0 0.1
2017-Oct-18 01:28N 37°30' W 122°29'0 0.0
2017-Oct-18 00:58N 37°30' W 122°29'0 0.0
2017-Oct-18 00:28N 37°30' W 122°29'0 0.0
2017-Oct-17 23:58N 37°30' W 122°29'0 0.0
2017-Oct-17 23:28N 37°30' W 122°29'0 0.0
2017-Oct-17 22:58N 37°30' W 122°29'0 0.0
2017-Oct-17 22:28N 37°30' W 122°29'0 0.0
2017-Oct-17 21:58N 37°30' W 122°29'0 0.0
2017-Oct-17 21:28N 37°30' W 122°29'0 0.0
2017-Oct-17 20:58N 37°30' W 122°29'0 0.0
2017-Oct-17 20:28N 37°30' W 122°29'0 0.0
2017-Oct-17 19:58N 37°30' W 122°29'0 0.0
2017-Oct-17 19:28N 37°30' W 122°29'0 0.2
2017-Oct-17 18:59N 37°30' W 122°29'1 2.8
2017-Oct-17 18:30N 37°29' W 122°29'3 5.7
2017-Oct-17 18:00N 37°30' W 122°32'3 6.3
2017-Oct-17 17:30N 37°31' W 122°36'26 5.5
2017-Oct-17 12:45N 37°53' W 122°54'1 5.1
2017-Oct-17 12:29N 37°54' W 122°56'2 5.1
2017-Oct-17 12:00N 37°55' W 122°58'  
Track history (hours):
 
Tides and Currents Weather Stations Pressure Air Temp Water Temp Dewpoint Dewpoint Depression Visibility Wind Speed Wind Dir Waves Ship Positions

Eione

Owner: Howell, Howard D, Maple Valley, WA. More information available from US FCC via Universal Licensing System and Coast Guard Vessel Documentation Center.

Last reported at 2017-Oct-27 11:56 UTC. Time now 2017-Nov-24 16:48 UTC.
Position N 32°46' W 117°39'.
Warning: this ship's position is 28 days out of date.

Length 12 m.

Type: Sailing vessel. MMSI: 367788850.

Date/timePositionNaut miles runAvg speedWind from/ knotsBaromVisibWave heightAir tempDewpointWater temp
2017-Oct-27 11:56N 32°46' W 117°39'81 5.0
2017-Oct-26 19:43N 33°52' W 118°37'3 7.1
2017-Oct-26 19:19N 33°52' W 118°40'13 6.5
2017-Oct-26 17:19N 33°53' W 118°56'2 6.2
2017-Oct-26 17:00N 33°54' W 118°58'3 6.1
2017-Oct-26 16:30N 33°54' W 119°02'3 6.0
2017-Oct-26 16:00N 33°54' W 119°05'1 2.1
2017-Oct-26 15:30N 33°54' W 119°07'1 2.4
2017-Oct-26 15:00N 33°54' W 119°08'2 3.9
2017-Oct-26 14:30N 33°55' W 119°10'2 4.4
2017-Oct-26 14:00N 33°57' W 119°12'3 4.6
2017-Oct-26 13:28N 33°58' W 119°14'3 5.0
2017-Oct-26 12:54N 33°60' W 119°17'2 4.8
2017-Oct-26 12:30N 34°01' W 119°19'2 4.6
2017-Oct-26 11:59N 34°02' W 119°21'3 4.6
2017-Oct-26 11:19N 34°03' W 119°25'2 4.6
2017-Oct-26 10:58N 34°04' W 119°27'2 4.6
2017-Oct-26 10:26N 34°04' W 119°30'2 4.1
2017-Oct-26 09:51N 34°05' W 119°32'2 4.4
2017-Oct-26 09:30N 34°06' W 119°34'2 4.4
2017-Oct-26 09:00N 34°06' W 119°37'6 5.9
2017-Oct-26 08:03N 34°08' W 119°43'1 6.3
2017-Oct-26 07:58N 34°08' W 119°44'3 6.4
2017-Oct-26 07:27N 34°09' W 119°47'3 6.1
2017-Oct-26 06:59N 34°10' W 119°50'4 5.6
2017-Oct-26 06:16N 34°14' W 119°53'2 6.0
2017-Oct-26 05:52N 34°15' W 119°56'2 5.9
2017-Oct-26 05:30N 34°16' W 119°58'3 6.0
2017-Oct-26 04:59N 34°17' W 120°02'3 6.0
2017-Oct-26 04:29N 34°18' W 120°05'3 5.5
2017-Oct-26 03:58N 34°19' W 120°08'3 5.6
2017-Oct-26 03:30N 34°20' W 120°11'3 5.6
2017-Oct-26 03:00N 34°21' W 120°14'3 5.4
2017-Oct-26 02:30N 34°22' W 120°17'3 5.4
2017-Oct-26 02:00N 34°23' W 120°20'3 5.3
2017-Oct-26 01:30N 34°24' W 120°23'3 6.2
2017-Oct-26 01:00N 34°25' W 120°27'3 6.5
2017-Oct-26 00:30N 34°26' W 120°31'6 6.3
2017-Oct-25 23:33N 34°30' W 120°36'0 7.3
2017-Oct-25 23:30N 34°30' W 120°36'15 5.4
2017-Oct-25 20:49N 34°40' W 120°49'6 6.2
2017-Oct-25 19:49N 34°45' W 120°54'2 4.9
2017-Oct-25 19:30N 34°46' W 120°56'3 6.3
2017-Oct-25 19:00N 34°48' W 120°58'5 5.9
2017-Oct-25 18:06N 34°52' W 121°02'1 6.5
2017-Oct-25 18:00N 34°53' W 121°03'3 5.8
2017-Oct-25 17:30N 34°55' W 121°05'109 4.7
2017-Oct-24 18:28N 36°37' W 121°54'77 4.5
2017-Oct-24 01:28N 37°47' W 122°32'4 9.0
2017-Oct-24 01:00N 37°50' W 122°28'1 1.4
2017-Oct-24 00:19N 37°51' W 122°28'0 0.0
2017-Oct-22 22:00N 37°51' W 122°29'2 4.8
2017-Oct-22 21:30N 37°49' W 122°29'3 5.8
2017-Oct-22 21:00N 37°49' W 122°25'2 3.8
2017-Oct-22 20:30N 37°48' W 122°23'3 6.7
2017-Oct-22 20:00N 37°50' W 122°26'  
2017-Oct-19 19:05N 37°52' W 122°29'0 1.8
2017-Oct-19 18:58N 37°52' W 122°29'1 2.5
2017-Oct-19 18:29N 37°51' W 122°28'15 6.7
2017-Oct-19 16:14N 37°37' W 122°34'2 7.1
2017-Oct-19 15:58N 37°35' W 122°34'3 6.9
2017-Oct-19 15:29N 37°31' W 122°34'3 6.1
2017-Oct-19 15:00N 37°29' W 122°32'2 4.5
2017-Oct-19 14:30N 37°30' W 122°29'0 0.0
2017-Oct-18 01:34N 37°30' W 122°29'0 0.1
2017-Oct-18 01:28N 37°30' W 122°29'0 0.0
2017-Oct-18 00:58N 37°30' W 122°29'0 0.0
2017-Oct-18 00:28N 37°30' W 122°29'0 0.0
2017-Oct-17 23:58N 37°30' W 122°29'0 0.0
2017-Oct-17 23:28N 37°30' W 122°29'0 0.0
2017-Oct-17 22:58N 37°30' W 122°29'0 0.0
2017-Oct-17 22:28N 37°30' W 122°29'0 0.0
2017-Oct-17 21:58N 37°30' W 122°29'0 0.0
2017-Oct-17 21:28N 37°30' W 122°29'0 0.0
2017-Oct-17 20:58N 37°30' W 122°29'0 0.0
2017-Oct-17 20:28N 37°30' W 122°29'0 0.0
2017-Oct-17 19:58N 37°30' W 122°29'0 0.0
2017-Oct-17 19:28N 37°30' W 122°29'0 0.2
2017-Oct-17 18:59N 37°30' W 122°29'1 2.8
2017-Oct-17 18:30N 37°29' W 122°29'3 5.7
2017-Oct-17 18:00N 37°30' W 122°32'3 6.3
2017-Oct-17 17:30N 37°31' W 122°36'26 5.5
2017-Oct-17 12:45N 37°53' W 122°54'1 5.1
2017-Oct-17 12:29N 37°54' W 122°56'2 5.1
2017-Oct-17 12:00N 37°55' W 122°58'  

Dump ship's entire track history